createdAt,value
2023-05-03T00:00:16.647Z,0.00
2023-05-03T00:01:16.625Z,0.00
2023-05-03T00:02:16.723Z,0.00
2023-05-03T00:03:16.634Z,0.00
2023-05-03T00:04:16.651Z,0.00
2023-05-03T00:05:16.700Z,0.00
2023-05-03T00:06:16.660Z,0.00
2023-05-03T00:07:16.564Z,0.00
2023-05-03T00:08:16.566Z,0.00
2023-05-03T00:09:16.608Z,0.00
2023-05-03T00:10:16.528Z,0.00
2023-05-03T00:11:16.540Z,0.00
2023-05-03T00:12:16.525Z,0.00
2023-05-03T00:13:16.505Z,0.00
2023-05-03T00:14:16.523Z,0.00
2023-05-03T00:15:16.479Z,0.00
2023-05-03T00:16:16.504Z,0.00
2023-05-03T00:17:16.456Z,0.00
2023-05-03T00:18:16.464Z,0.00
2023-05-03T00:19:30.642Z,0.00
2023-05-03T00:20:18.644Z,0.00
2023-05-03T00:21:16.421Z,0.00
2023-05-03T00:22:16.407Z,0.00
2023-05-03T00:23:16.412Z,0.00
2023-05-03T00:24:16.424Z,0.00
2023-05-03T00:25:16.373Z,0.00
2023-05-03T00:26:16.400Z,0.00
2023-05-03T00:27:16.350Z,0.00
2023-05-03T00:28:16.339Z,0.00
2023-05-03T00:29:16.355Z,0.00
2023-05-03T00:30:16.328Z,0.00
2023-05-03T00:31:16.374Z,0.00
2023-05-03T00:32:16.339Z,0.00
2023-05-03T00:33:16.302Z,0.00
2023-05-03T00:34:16.298Z,0.00
2023-05-03T00:35:16.294Z,0.00
2023-05-03T00:36:16.280Z,0.00
2023-05-03T00:37:16.234Z,0.00
2023-05-03T00:38:17.254Z,0.00
2023-05-03T00:39:16.256Z,0.00
2023-05-03T00:40:16.226Z,0.00
2023-05-03T00:41:16.207Z,0.00
2023-05-03T00:42:16.198Z,0.00
2023-05-03T00:43:16.195Z,0.00
2023-05-03T00:44:16.207Z,0.00
2023-05-03T00:45:16.177Z,0.00
2023-05-03T00:46:17.655Z,0.00
2023-05-03T00:47:17.367Z,0.00
2023-05-03T00:48:16.135Z,0.00
2023-05-03T00:49:16.145Z,0.00
2023-05-03T00:50:16.137Z,0.00
2023-05-03T00:51:16.138Z,0.00
2023-05-03T00:52:16.110Z,0.00
2023-05-03T00:53:16.099Z,0.00
2023-05-03T00:54:16.123Z,0.00
2023-05-03T00:55:16.080Z,0.00
2023-05-03T00:56:16.079Z,0.00
2023-05-03T00:57:16.073Z,0.00
2023-05-03T00:58:16.051Z,0.00
2023-05-03T00:59:16.068Z,0.00
2023-05-03T01:00:16.025Z,0.00
2023-05-03T01:01:16.018Z,0.00
2023-05-03T01:02:16.015Z,0.00
2023-05-03T01:03:16.110Z,0.00
2023-05-03T01:04:16.012Z,0.00
2023-05-03T01:05:15.975Z,0.00
2023-05-03T01:06:16.047Z,0.00
2023-05-03T01:07:15.963Z,0.00
2023-05-03T01:08:15.946Z,0.00
2023-05-03T01:09:15.973Z,0.00
2023-05-03T01:10:15.936Z,0.00
2023-05-03T01:11:15.927Z,0.00
2023-05-03T01:12:15.931Z,0.00
2023-05-03T01:13:15.909Z,0.00
2023-05-03T01:14:15.922Z,0.00
2023-05-03T01:15:15.885Z,0.00
2023-05-03T01:16:15.916Z,0.00
2023-05-03T01:17:15.857Z,0.00
2023-05-03T01:18:15.863Z,0.00
2023-05-03T01:19:15.877Z,0.00
2023-05-03T01:20:15.825Z,0.00
2023-05-03T01:21:16.828Z,0.00
2023-05-03T01:22:15.824Z,0.00
2023-05-03T01:23:15.808Z,0.00
2023-05-03T01:24:15.817Z,0.00
2023-05-03T01:25:15.802Z,0.00
2023-05-03T01:26:15.799Z,0.00
2023-05-03T01:27:15.786Z,0.00
2023-05-03T01:28:15.785Z,0.00
2023-05-03T01:29:16.860Z,0.00
2023-05-03T01:30:15.798Z,0.00
2023-05-03T01:31:15.794Z,0.00
2023-05-03T01:32:15.730Z,0.00
2023-05-03T01:33:15.742Z,0.00
2023-05-03T01:34:15.748Z,0.00
2023-05-03T01:35:15.740Z,0.00
2023-05-03T01:36:15.691Z,0.00
2023-05-03T01:37:15.705Z,0.00
2023-05-03T01:38:15.705Z,0.00
2023-05-03T01:39:15.714Z,0.00
2023-05-03T01:40:15.663Z,0.00
2023-05-03T01:41:15.657Z,0.00
2023-05-03T01:42:15.644Z,0.00
2023-05-03T01:43:15.642Z,0.00
2023-05-03T01:44:15.658Z,0.00
2023-05-03T01:45:15.612Z,0.00
2023-05-03T01:46:15.660Z,0.00
2023-05-03T01:47:15.594Z,0.00
2023-05-03T01:48:16.601Z,0.00
2023-05-03T01:49:15.600Z,0.00
2023-05-03T01:50:15.577Z,0.00
2023-05-03T01:51:15.567Z,0.00
2023-05-03T01:52:15.564Z,0.00
2023-05-03T01:53:15.557Z,0.00
2023-05-03T01:54:15.577Z,0.00
2023-05-03T01:55:15.553Z,0.00
2023-05-03T01:56:15.531Z,0.00
2023-05-03T01:57:15.514Z,0.00
2023-05-03T01:58:15.515Z,0.00
2023-05-03T01:59:15.537Z,0.00
2023-05-03T02:00:15.500Z,0.00
2023-05-03T02:01:15.568Z,0.00
2023-05-03T02:02:15.499Z,0.00
2023-05-03T02:03:15.484Z,0.00
2023-05-03T02:04:15.543Z,0.00
2023-05-03T02:05:15.474Z,0.00
2023-05-03T02:06:15.556Z,0.00
2023-05-03T02:07:15.451Z,0.00
2023-05-03T02:08:15.442Z,0.00
2023-05-03T02:09:15.452Z,0.00
2023-05-03T02:10:15.438Z,0.00
2023-05-03T02:11:15.412Z,0.00
2023-05-03T02:12:15.402Z,0.00
2023-05-03T02:13:15.405Z,0.00
2023-05-03T02:14:15.406Z,0.00
2023-05-03T02:15:15.377Z,0.00
2023-05-03T02:16:16.415Z,0.00
2023-05-03T02:17:15.363Z,0.00
2023-05-03T02:18:15.360Z,0.00
2023-05-03T02:19:15.389Z,0.00
2023-05-03T02:20:15.335Z,0.00
2023-05-03T02:21:15.346Z,0.00
2023-05-03T02:22:15.336Z,0.00
2023-05-03T02:23:15.312Z,0.00
2023-05-03T02:24:16.336Z,0.00
2023-05-03T02:25:15.295Z,0.00
2023-05-03T02:26:16.286Z,0.00
2023-05-03T02:27:15.282Z,0.00
2023-05-03T02:28:15.284Z,0.00
2023-05-03T02:29:15.291Z,0.00
2023-05-03T02:30:15.278Z,0.00
2023-05-03T02:31:15.315Z,0.00
2023-05-03T02:32:15.241Z,0.00
2023-05-03T02:33:15.231Z,0.00
2023-05-03T02:34:15.284Z,0.00
2023-05-03T02:35:15.217Z,0.00
2023-05-03T02:36:15.211Z,0.00
2023-05-03T02:37:15.191Z,0.00
2023-05-03T02:38:15.200Z,0.00
2023-05-03T02:39:15.218Z,0.00
2023-05-03T02:40:15.176Z,0.00
2023-05-03T02:41:15.172Z,0.00
2023-05-03T02:42:15.163Z,0.00
2023-05-03T02:43:15.146Z,0.00
2023-05-03T02:44:15.156Z,0.00
2023-05-03T02:45:15.128Z,0.00
2023-05-03T02:46:15.179Z,0.00
2023-05-03T02:47:15.112Z,0.00
2023-05-03T02:48:15.102Z,0.00
2023-05-03T02:49:15.114Z,0.00
2023-05-03T02:50:15.089Z,0.00
2023-05-03T02:51:15.097Z,0.00
2023-05-03T02:52:15.069Z,0.00
2023-05-03T02:53:15.048Z,0.00
2023-05-03T02:54:15.063Z,0.00
2023-05-03T02:55:15.043Z,0.00
2023-05-03T02:56:15.068Z,0.00
2023-05-03T02:57:15.027Z,0.00
2023-05-03T02:58:15.012Z,0.00
2023-05-03T02:59:15.031Z,0.00
2023-05-03T03:00:14.988Z,0.00
2023-05-03T03:01:15.023Z,0.00
2023-05-03T03:02:14.987Z,0.00
2023-05-03T03:03:15.075Z,0.00
2023-05-03T03:04:14.976Z,0.00
2023-05-03T03:05:14.951Z,0.00
2023-05-03T03:06:14.978Z,0.00
2023-05-03T03:07:14.949Z,0.00
2023-05-03T03:08:14.960Z,0.00
2023-05-03T03:09:14.947Z,0.00
2023-05-03T03:10:14.909Z,0.00
2023-05-03T03:11:14.900Z,0.00
2023-05-03T03:12:14.892Z,0.00
2023-05-03T03:13:14.904Z,0.00
2023-05-03T03:14:14.919Z,0.00
2023-05-03T03:15:14.874Z,0.00
2023-05-03T03:16:14.869Z,0.00
2023-05-03T03:17:14.848Z,0.00
2023-05-03T03:18:14.832Z,0.00
2023-05-03T03:19:14.856Z,0.00
2023-05-03T03:20:14.853Z,0.00
2023-05-03T03:21:14.817Z,0.00
2023-05-03T03:22:14.811Z,0.00
2023-05-03T03:23:14.815Z,0.00
2023-05-03T03:24:14.838Z,0.00
2023-05-03T03:25:14.794Z,0.00
2023-05-03T03:26:14.785Z,0.00
2023-05-03T03:27:14.758Z,0.00
2023-05-03T03:28:14.753Z,0.00
2023-05-03T03:29:14.806Z,0.00
2023-05-03T03:30:14.746Z,0.00
2023-05-03T03:31:14.812Z,0.00
2023-05-03T03:32:14.717Z,0.00
2023-05-03T03:33:14.749Z,0.00
2023-05-03T03:34:14.751Z,0.00
2023-05-03T03:35:14.706Z,0.00
2023-05-03T03:36:14.697Z,0.00
2023-05-03T03:37:14.766Z,0.00
2023-05-03T03:38:14.663Z,0.00
2023-05-03T03:39:14.696Z,0.00
2023-05-03T03:40:14.644Z,0.00
2023-05-03T03:41:14.649Z,0.00
2023-05-03T03:42:14.619Z,5.62
2023-05-03T03:43:14.613Z,5.62
2023-05-03T03:44:48.235Z,5.62
2023-05-03T03:45:14.592Z,5.62
2023-05-03T03:46:14.645Z,5.62
2023-05-03T03:47:14.669Z,5.62
2023-05-03T03:48:14.600Z,5.62
2023-05-03T03:49:14.598Z,11.25
2023-05-03T03:50:14.560Z,11.25
2023-05-03T03:51:14.538Z,11.25
2023-05-03T03:52:14.541Z,11.25
2023-05-03T03:53:14.525Z,11.25
2023-05-03T03:54:14.539Z,16.88
2023-05-03T03:55:15.512Z,16.88
2023-05-03T03:56:14.507Z,16.88
2023-05-03T03:57:14.500Z,16.88
2023-05-03T03:58:14.482Z,22.50
2023-05-03T03:59:14.509Z,22.50
2023-05-03T04:00:14.465Z,22.50
2023-05-03T04:01:14.467Z,22.50
2023-05-03T04:02:14.488Z,28.12
2023-05-03T04:03:14.494Z,28.12
2023-05-03T04:04:14.528Z,28.12
2023-05-03T04:05:14.482Z,33.75
2023-05-03T04:06:14.445Z,33.75
2023-05-03T04:07:14.416Z,33.75
2023-05-03T04:08:14.406Z,39.38
2023-05-03T04:09:14.441Z,39.38
2023-05-03T04:10:14.390Z,45.00
2023-05-03T04:11:14.384Z,45.00
2023-05-03T04:12:14.370Z,45.00
2023-05-03T04:13:14.381Z,50.62
2023-05-03T04:14:14.374Z,50.62
2023-05-03T04:15:14.343Z,50.62
2023-05-03T04:16:14.339Z,56.25
2023-05-03T04:17:14.491Z,56.25
2023-05-03T04:18:14.354Z,61.88
2023-05-03T04:19:14.399Z,61.88
2023-05-03T04:20:14.303Z,61.88
2023-05-03T04:21:14.294Z,67.50
2023-05-03T04:22:14.297Z,67.50
2023-05-03T04:23:14.284Z,73.12
2023-05-03T04:24:14.301Z,73.12
2023-05-03T04:25:14.278Z,73.12
2023-05-03T04:26:23.932Z,78.75
2023-05-03T04:27:16.262Z,78.75
2023-05-03T04:28:14.241Z,84.38
2023-05-03T04:29:14.260Z,84.38
2023-05-03T04:30:14.218Z,90.00
2023-05-03T04:31:14.247Z,90.00
2023-05-03T04:32:14.217Z,90.00
2023-05-03T04:33:14.266Z,90.00
2023-05-03T04:34:14.207Z,90.00
2023-05-03T04:35:14.195Z,95.62
2023-05-03T04:36:14.172Z,95.62
2023-05-03T04:37:14.163Z,95.62
2023-05-03T04:38:14.186Z,101.25
2023-05-03T04:39:14.149Z,101.25
2023-05-03T04:40:14.126Z,106.88
2023-05-03T04:41:16.020Z,106.88
2023-05-03T04:42:15.135Z,106.88
2023-05-03T04:43:14.126Z,112.50
2023-05-03T04:44:14.114Z,112.50
2023-05-03T04:45:14.097Z,118.12
2023-05-03T04:46:14.143Z,118.12
2023-05-03T04:47:14.090Z,118.12
2023-05-03T04:48:14.118Z,123.75
2023-05-03T04:49:14.299Z,123.75
2023-05-03T04:50:14.063Z,129.38
2023-05-03T04:51:14.782Z,129.38
2023-05-03T04:52:14.077Z,129.38
2023-05-03T04:53:14.047Z,135.00
2023-05-03T04:54:14.035Z,135.00
2023-05-03T04:55:14.039Z,135.00
2023-05-03T04:56:14.004Z,140.62
2023-05-03T04:57:14.005Z,140.62
2023-05-03T04:58:14.001Z,146.25
2023-05-03T04:59:14.040Z,146.25
2023-05-03T05:00:14.003Z,146.25
2023-05-03T05:01:13.986Z,151.88
2023-05-03T05:02:14.978Z,151.88
2023-05-03T05:03:14.037Z,151.88
2023-05-03T05:04:13.978Z,157.50
2023-05-03T05:05:13.947Z,157.50
2023-05-03T05:06:13.948Z,157.50
2023-05-03T05:07:13.971Z,163.12
2023-05-03T05:08:13.921Z,163.12
2023-05-03T05:09:13.946Z,163.12
2023-05-03T05:10:13.900Z,163.12
2023-05-03T05:11:13.893Z,163.12
2023-05-03T05:12:13.875Z,163.12
2023-05-03T05:13:13.868Z,168.75
2023-05-03T05:14:13.897Z,168.75
2023-05-03T05:15:13.855Z,168.75
2023-05-03T05:16:13.847Z,174.38
2023-05-03T05:17:13.865Z,174.38
2023-05-03T05:18:13.851Z,174.38
2023-05-03T05:19:13.852Z,174.38
2023-05-03T05:20:13.839Z,180.00
2023-05-03T05:21:13.803Z,180.00
2023-05-03T05:22:13.781Z,180.00
2023-05-03T05:23:13.784Z,185.62
2023-05-03T05:24:13.802Z,185.62
2023-05-03T05:25:13.774Z,185.62
2023-05-03T05:26:13.751Z,191.25
2023-05-03T05:27:13.754Z,191.25
2023-05-03T05:28:13.742Z,191.25
2023-05-03T05:29:13.778Z,191.25
2023-05-03T05:30:13.723Z,196.88
2023-05-03T05:31:13.752Z,196.88
2023-05-03T05:32:13.723Z,196.88
2023-05-03T05:33:14.047Z,196.88
2023-05-03T05:34:13.713Z,202.50
2023-05-03T05:35:13.693Z,202.50
2023-05-03T05:36:13.673Z,202.50
2023-05-03T05:37:13.652Z,208.12
2023-05-03T05:38:13.667Z,208.12
2023-05-03T05:39:13.688Z,208.12
2023-05-03T05:40:13.651Z,208.12
2023-05-03T05:41:13.622Z,208.12
2023-05-03T05:42:13.613Z,208.12
2023-05-03T05:43:13.586Z,208.12
2023-05-03T05:44:13.610Z,208.12
2023-05-03T05:45:13.584Z,213.75
2023-05-03T05:46:13.596Z,213.75
2023-05-03T05:47:13.603Z,213.75
2023-05-03T05:48:13.570Z,213.75
2023-05-03T05:49:13.573Z,219.38
2023-05-03T05:50:18.249Z,219.38
2023-05-03T05:51:15.524Z,219.38
2023-05-03T05:52:13.510Z,219.38
2023-05-03T05:53:13.519Z,225.00
2023-05-03T05:54:13.518Z,225.00
2023-05-03T05:55:13.486Z,225.00
2023-05-03T05:56:13.473Z,225.00
2023-05-03T05:57:13.465Z,230.62
2023-05-03T05:58:13.462Z,230.62
2023-05-03T05:59:13.479Z,230.62
2023-05-03T06:00:13.440Z,230.62
2023-05-03T06:01:13.423Z,230.62
2023-05-03T06:02:13.453Z,230.62
2023-05-03T06:03:13.469Z,236.25
2023-05-03T06:04:13.429Z,236.25
2023-05-03T06:05:13.449Z,236.25
2023-05-03T06:06:13.424Z,236.25
2023-05-03T06:07:13.369Z,236.25
2023-05-03T06:08:13.353Z,241.88
2023-05-03T06:09:24.274Z,241.88
2023-05-03T06:10:15.339Z,241.88
2023-05-03T06:11:13.327Z,241.88
2023-05-03T06:12:13.377Z,241.88
2023-05-03T06:13:13.314Z,241.88
2023-05-03T06:14:13.314Z,241.88
2023-05-03T06:15:13.291Z,241.88
2023-05-03T06:16:13.264Z,241.88
2023-05-03T06:17:13.285Z,241.88
2023-05-03T06:18:13.319Z,241.88
2023-05-03T06:19:13.253Z,241.88
2023-05-03T06:20:13.218Z,241.88
2023-05-03T06:21:13.204Z,241.88
2023-05-03T06:22:13.196Z,241.88
2023-05-03T06:23:13.203Z,247.50
2023-05-03T06:24:13.234Z,247.50
2023-05-03T06:25:15.264Z,247.50
2023-05-03T06:26:13.169Z,247.50
2023-05-03T06:27:13.131Z,247.50
2023-05-03T06:28:13.139Z,247.50
2023-05-03T06:29:13.131Z,253.12
2023-05-03T06:30:13.129Z,253.12
2023-05-03T06:31:13.134Z,253.12
2023-05-03T06:32:13.077Z,253.12
2023-05-03T06:33:13.160Z,253.12
2023-05-03T06:34:13.080Z,253.12
2023-05-03T06:35:13.079Z,253.12
2023-05-03T06:36:13.096Z,258.75
2023-05-03T06:37:13.048Z,258.75
2023-05-03T06:38:13.041Z,258.75
2023-05-03T06:39:13.032Z,258.75
2023-05-03T06:40:12.994Z,258.75
2023-05-03T06:41:12.992Z,258.75
2023-05-03T06:42:12.962Z,264.38
2023-05-03T06:43:12.959Z,264.38
2023-05-03T06:44:12.999Z,264.38
2023-05-03T06:45:12.938Z,264.38
2023-05-03T06:46:12.952Z,264.38
2023-05-03T06:47:12.919Z,264.38
2023-05-03T06:48:13.073Z,264.38
2023-05-03T06:49:12.933Z,264.38
2023-05-03T06:50:12.884Z,264.38
2023-05-03T06:51:12.882Z,264.38
2023-05-03T06:52:12.901Z,264.38
2023-05-03T06:53:12.857Z,264.38
2023-05-03T06:54:12.861Z,264.38
2023-05-03T06:55:12.841Z,264.38
2023-05-03T06:56:12.826Z,264.38
2023-05-03T06:57:12.825Z,270.00
2023-05-03T06:58:12.794Z,270.00
2023-05-03T06:59:12.824Z,270.00
2023-05-03T07:00:12.800Z,270.00
2023-05-03T07:01:12.789Z,270.00
2023-05-03T07:02:12.907Z,270.00
2023-05-03T07:03:12.861Z,270.00
2023-05-03T07:04:12.885Z,275.62
2023-05-03T07:05:12.740Z,275.62
2023-05-03T07:06:12.727Z,275.62
2023-05-03T07:07:12.787Z,275.62
2023-05-03T07:08:12.707Z,275.62
2023-05-03T07:09:12.707Z,275.62
2023-05-03T07:10:13.248Z,275.62
2023-05-03T07:11:12.686Z,281.25
2023-05-03T07:12:12.669Z,281.25
2023-05-03T07:13:12.682Z,281.25
2023-05-03T07:14:12.815Z,281.25
2023-05-03T07:15:12.728Z,281.25
2023-05-03T07:16:12.727Z,281.25
2023-05-03T07:17:12.620Z,281.25
2023-05-03T07:18:12.679Z,281.25
2023-05-03T07:19:12.653Z,286.88
2023-05-03T07:20:13.583Z,286.88
2023-05-03T07:21:12.592Z,286.88
2023-05-03T07:22:12.567Z,286.88
2023-05-03T07:23:12.572Z,286.88
2023-05-03T07:24:12.607Z,286.88
2023-05-03T07:25:12.646Z,286.88
2023-05-03T07:26:12.546Z,292.50
2023-05-03T07:27:12.531Z,286.88
2023-05-03T07:28:12.508Z,286.88
2023-05-03T07:29:12.518Z,286.88
2023-05-03T07:30:13.483Z,286.88
2023-05-03T07:31:12.472Z,286.88
2023-05-03T07:32:12.516Z,286.88
2023-05-03T07:33:12.702Z,292.50
2023-05-03T07:34:12.515Z,292.50
2023-05-03T07:35:12.447Z,292.50
2023-05-03T07:36:12.450Z,292.50
2023-05-03T07:37:12.419Z,292.50
2023-05-03T07:38:12.415Z,298.12
2023-05-03T07:39:13.248Z,298.12
2023-05-03T07:40:12.441Z,298.12
2023-05-03T07:41:12.474Z,298.12
2023-05-03T07:42:12.388Z,303.75
2023-05-03T07:43:12.383Z,303.75
2023-05-03T07:44:12.400Z,309.38
2023-05-03T07:45:12.363Z,315.00
2023-05-03T07:46:12.388Z,315.00
2023-05-03T07:47:12.338Z,315.00
2023-05-03T07:48:12.327Z,320.62
2023-05-03T07:49:12.368Z,320.62
2023-05-03T07:50:12.296Z,326.25
2023-05-03T07:51:12.300Z,326.25
2023-05-03T07:52:12.385Z,331.88
2023-05-03T07:53:12.284Z,331.88
2023-05-03T07:54:12.269Z,331.88
2023-05-03T07:55:12.249Z,337.50
2023-05-03T07:56:12.276Z,337.50
2023-05-03T07:57:12.237Z,337.50
2023-05-03T07:58:12.224Z,343.12
2023-05-03T07:59:12.247Z,343.12
2023-05-03T08:00:12.248Z,343.12
2023-05-03T08:01:12.272Z,343.12
2023-05-03T08:02:12.280Z,343.12
2023-05-03T08:03:12.527Z,343.12
2023-05-03T08:04:12.664Z,343.12
2023-05-03T08:05:12.281Z,343.12
2023-05-03T08:06:12.158Z,343.12
2023-05-03T08:07:12.123Z,343.12
2023-05-03T08:08:12.108Z,348.75
2023-05-03T08:09:12.135Z,354.38
2023-05-03T08:10:12.117Z,354.38
2023-05-03T08:11:12.084Z,343.12
2023-05-03T08:12:12.105Z,337.50
2023-05-03T08:13:12.068Z,337.50
2023-05-03T08:14:12.072Z,337.50
2023-05-03T08:15:12.045Z,337.50
2023-05-03T08:16:12.068Z,331.88
2023-05-03T08:17:12.065Z,331.88
2023-05-03T08:18:12.044Z,331.88
2023-05-03T08:19:12.038Z,326.25
2023-05-03T08:20:12.011Z,326.25
2023-05-03T08:21:11.978Z,326.25
2023-05-03T08:22:11.969Z,326.25
2023-05-03T08:23:12.043Z,326.25
2023-05-03T08:24:15.413Z,326.25
2023-05-03T08:25:11.950Z,326.25
2023-05-03T08:26:11.933Z,326.25
2023-05-03T08:27:11.938Z,326.25
2023-05-03T08:28:11.934Z,326.25
2023-05-03T08:29:11.925Z,326.25
2023-05-03T08:30:11.893Z,326.25
2023-05-03T08:31:11.901Z,326.25
2023-05-03T08:32:11.876Z,320.62
2023-05-03T08:33:11.865Z,320.62
2023-05-03T08:34:11.874Z,320.62
2023-05-03T08:35:11.841Z,320.62
2023-05-03T08:36:12.842Z,320.62
2023-05-03T08:37:11.821Z,320.62
2023-05-03T08:38:11.813Z,320.62
2023-05-03T08:39:11.843Z,320.62
2023-05-03T08:40:11.790Z,320.62
2023-05-03T08:41:11.786Z,320.62
2023-05-03T08:42:11.778Z,320.62
2023-05-03T08:43:11.808Z,320.62
2023-05-03T08:44:11.773Z,320.62
2023-05-03T08:45:11.748Z,326.25
2023-05-03T08:46:11.758Z,320.62
2023-05-03T08:47:11.714Z,315.00
2023-05-03T08:48:11.774Z,315.00
2023-05-03T08:49:11.728Z,315.00
2023-05-03T08:50:11.683Z,315.00
2023-05-03T08:51:11.676Z,315.00
2023-05-03T08:52:11.748Z,315.00
2023-05-03T08:53:11.661Z,315.00
2023-05-03T08:54:11.665Z,315.00
2023-05-03T08:55:11.676Z,315.00
2023-05-03T08:56:11.618Z,315.00
2023-05-03T08:57:11.614Z,315.00
2023-05-03T08:58:11.608Z,315.00
2023-05-03T08:59:11.669Z,315.00
2023-05-03T09:00:11.578Z,315.00
2023-05-03T09:01:11.576Z,315.00
2023-05-03T09:02:11.645Z,320.62
2023-05-03T09:03:11.625Z,320.62
2023-05-03T09:04:11.686Z,320.62
2023-05-03T09:05:11.528Z,320.62
2023-05-03T09:06:11.534Z,320.62
2023-05-03T09:07:11.520Z,320.62
2023-05-03T09:08:11.591Z,320.62
2023-05-03T09:09:11.498Z,320.62
2023-05-03T09:10:11.474Z,320.62
2023-05-03T09:11:11.458Z,320.62
2023-05-03T09:12:11.453Z,320.62
2023-05-03T09:13:11.449Z,320.62
2023-05-03T09:14:11.467Z,320.62
2023-05-03T09:15:11.422Z,326.25
2023-05-03T09:16:11.444Z,320.62
2023-05-03T09:17:11.401Z,320.62
2023-05-03T09:18:11.486Z,320.62
2023-05-03T09:19:11.408Z,320.62
2023-05-03T09:20:11.372Z,320.62
2023-05-03T09:21:11.364Z,326.25
2023-05-03T09:22:11.352Z,326.25
2023-05-03T09:23:11.342Z,326.25
2023-05-03T09:24:11.348Z,326.25
2023-05-03T09:25:11.314Z,326.25
2023-05-03T09:26:11.325Z,326.25
2023-05-03T09:27:11.297Z,320.62
2023-05-03T09:28:11.286Z,320.62
2023-05-03T09:29:11.292Z,320.62
2023-05-03T09:30:11.278Z,320.62
2023-05-03T09:31:12.169Z,320.62
2023-05-03T09:32:11.374Z,320.62
2023-05-03T09:33:11.310Z,320.62
2023-05-03T09:34:11.260Z,320.62
2023-05-03T09:35:11.257Z,320.62
2023-05-03T09:36:11.245Z,326.25
2023-05-03T09:37:11.209Z,326.25
2023-05-03T09:38:11.213Z,331.88
2023-05-03T09:39:11.218Z,331.88
2023-05-03T09:40:11.178Z,331.88
2023-05-03T09:41:11.174Z,331.88
2023-05-03T09:42:11.177Z,331.88
2023-05-03T09:43:11.173Z,331.88
2023-05-03T09:45:39.981Z,331.88
2023-05-03T09:46:39.982Z,331.88
2023-05-03T09:47:40.054Z,331.88
2023-05-03T09:48:39.982Z,331.88
2023-05-03T09:49:40.005Z,331.88
2023-05-03T09:50:41.072Z,331.88
2023-05-03T09:51:41.085Z,331.88
2023-05-03T09:52:41.055Z,331.88
2023-05-03T09:53:41.046Z,326.25
2023-05-03T09:54:41.104Z,331.88
2023-05-03T09:55:41.168Z,331.88
2023-05-03T09:56:41.006Z,331.88
2023-05-03T09:57:40.994Z,331.88
2023-05-03T09:58:41.031Z,331.88
2023-05-03T09:59:41.011Z,331.88
2023-05-03T10:00:40.967Z,331.88
2023-05-03T10:01:41.045Z,331.88
2023-05-03T10:02:40.967Z,331.88
2023-05-03T10:03:40.982Z,337.50
2023-05-03T10:04:40.992Z,337.50
2023-05-03T10:05:40.941Z,337.50
2023-05-03T10:06:40.937Z,343.12
2023-05-03T10:07:40.916Z,343.12
2023-05-03T10:08:40.893Z,343.12
2023-05-03T10:09:40.969Z,348.75
2023-05-03T10:10:40.872Z,348.75
2023-05-03T10:11:40.906Z,354.38
2023-05-03T10:12:40.852Z,354.38
2023-05-03T10:13:40.852Z,354.38
2023-05-03T10:14:40.864Z,360.00
2023-05-03T10:15:40.841Z,354.38
2023-05-03T10:16:40.816Z,354.38
2023-05-03T10:17:48.034Z,354.38
2023-05-03T10:18:42.799Z,348.75
2023-05-03T10:19:40.816Z,320.62
2023-05-03T10:20:40.778Z,343.12
2023-05-03T10:21:40.790Z,343.12
2023-05-03T10:22:40.746Z,343.12
2023-05-03T10:23:40.739Z,343.12
2023-05-03T10:24:40.840Z,348.75
2023-05-03T10:25:40.754Z,348.75
2023-05-03T10:26:40.719Z,348.75
2023-05-03T10:27:40.698Z,343.12
2023-05-03T10:28:40.695Z,348.75
2023-05-03T10:29:40.697Z,348.75
2023-05-03T10:30:40.725Z,348.75
2023-05-03T10:31:40.709Z,343.12
2023-05-03T10:32:40.695Z,348.75
2023-05-03T10:33:40.644Z,348.75
2023-05-03T10:34:40.663Z,343.12
2023-05-03T10:35:40.642Z,337.50
2023-05-03T10:36:49.524Z,326.25
2023-05-03T10:37:42.617Z,331.88
2023-05-03T10:38:40.597Z,331.88
2023-05-03T10:39:40.638Z,337.50
2023-05-03T10:40:40.566Z,331.88
2023-05-03T10:41:40.552Z,337.50
2023-05-03T10:42:40.553Z,337.50
2023-05-03T10:43:40.542Z,337.50
2023-05-03T10:44:40.564Z,331.88
2023-05-03T10:45:40.511Z,331.88
2023-05-03T10:46:40.581Z,337.50
2023-05-03T10:47:40.779Z,331.88
2023-05-03T10:48:40.493Z,331.88
2023-05-03T10:49:40.503Z,320.62
2023-05-03T10:50:40.482Z,337.50
2023-05-03T10:51:40.469Z,337.50
2023-05-03T10:52:40.445Z,337.50
2023-05-03T10:53:40.443Z,337.50
2023-05-03T10:54:40.445Z,337.50
2023-05-03T10:55:40.420Z,337.50
2023-05-03T10:56:40.438Z,337.50
2023-05-03T10:57:40.625Z,337.50
2023-05-03T10:58:40.399Z,337.50
2023-05-03T10:59:40.389Z,337.50
2023-05-03T11:00:40.374Z,337.50
2023-05-03T11:01:40.465Z,337.50
2023-05-03T11:02:40.368Z,337.50
2023-05-03T11:03:40.341Z,337.50
2023-05-03T11:04:40.372Z,331.88
2023-05-03T11:05:40.306Z,337.50
2023-05-03T11:06:40.369Z,337.50
2023-05-03T11:07:40.293Z,337.50
2023-05-03T11:08:40.273Z,337.50
2023-05-03T11:09:40.296Z,337.50
2023-05-03T11:10:40.251Z,337.50
2023-05-03T11:11:40.247Z,337.50
2023-05-03T11:12:40.242Z,337.50
2023-05-03T11:13:40.269Z,337.50
2023-05-03T11:14:40.248Z,331.88
2023-05-03T11:15:40.365Z,331.88
2023-05-03T11:16:40.273Z,331.88
2023-05-03T11:17:40.207Z,331.88
2023-05-03T11:18:40.188Z,331.88
2023-05-03T11:19:40.214Z,331.88
2023-05-03T11:20:40.237Z,331.88
2023-05-03T11:21:40.173Z,331.88
2023-05-03T11:22:40.159Z,337.50
2023-05-03T11:23:40.148Z,337.50
2023-05-03T11:24:40.155Z,337.50
2023-05-03T11:25:40.131Z,337.50
2023-05-03T11:26:40.114Z,337.50
2023-05-03T11:27:40.103Z,337.50
2023-05-03T11:28:40.091Z,337.50
2023-05-03T11:29:40.128Z,337.50
2023-05-03T11:30:40.056Z,337.50
2023-05-03T11:31:40.105Z,337.50
2023-05-03T11:32:40.088Z,337.50
2023-05-03T11:33:40.058Z,337.50
2023-05-03T11:34:40.054Z,337.50
2023-05-03T11:35:40.052Z,337.50
2023-05-03T11:36:40.006Z,343.12
2023-05-03T11:37:39.986Z,343.12
2023-05-03T11:38:40.025Z,343.12
2023-05-03T11:39:39.993Z,337.50
2023-05-03T11:40:39.960Z,343.12
2023-05-03T11:41:39.992Z,337.50
2023-05-03T11:42:39.968Z,337.50
2023-05-03T11:43:39.948Z,337.50
2023-05-03T11:44:39.973Z,337.50
2023-05-03T11:45:40.133Z,343.12
2023-05-03T11:46:39.933Z,343.12
2023-05-03T11:47:39.928Z,343.12
2023-05-03T11:48:39.886Z,343.12
2023-05-03T11:49:39.956Z,343.12
2023-05-03T11:50:39.853Z,343.12
2023-05-03T11:51:39.872Z,348.75
2023-05-03T11:52:39.871Z,348.75
2023-05-03T11:53:39.840Z,348.75
2023-05-03T11:54:39.837Z,348.75
2023-05-03T11:55:39.804Z,348.75
2023-05-03T11:56:39.788Z,343.12
2023-05-03T11:57:39.850Z,348.75
2023-05-03T11:58:39.872Z,343.12
2023-05-03T11:59:40.059Z,348.75
2023-05-03T12:00:39.760Z,348.75
2023-05-03T12:01:39.784Z,348.75
2023-05-03T12:02:39.858Z,354.38
2023-05-03T12:03:39.820Z,348.75
2023-05-03T12:04:39.945Z,348.75
2023-05-03T12:05:39.950Z,343.12
2023-05-03T12:06:40.701Z,348.75
2023-05-03T12:07:40.083Z,343.12
2023-05-03T12:08:43.157Z,348.75
2023-05-03T12:09:44.096Z,348.75
2023-05-03T12:10:41.019Z,348.75
2023-05-03T12:11:40.267Z,348.75
2023-05-03T12:13:41.256Z,343.12
2023-05-03T12:14:39.687Z,348.75
2023-05-03T12:15:40.877Z,348.75
2023-05-03T12:16:40.663Z,348.75
2023-05-03T12:17:43.010Z,348.75
2023-05-03T12:18:40.529Z,348.75
2023-05-03T12:19:40.158Z,348.75
2023-05-03T12:21:26.756Z,343.12
2023-05-03T12:21:42.402Z,343.12
2023-05-03T12:22:40.772Z,348.75
2023-05-03T12:23:39.643Z,348.75
2023-05-03T12:24:39.803Z,348.75
2023-05-03T12:25:42.808Z,348.75
2023-05-03T12:26:40.866Z,348.75
2023-05-03T12:27:40.890Z,348.75
2023-05-03T12:28:39.534Z,343.12
2023-05-03T12:29:41.633Z,348.75
2023-05-03T12:30:40.780Z,348.75
2023-05-03T12:31:42.266Z,348.75
2023-05-03T12:32:39.578Z,348.75
2023-05-03T12:33:43.218Z,348.75
2023-05-03T12:34:41.053Z,348.75
2023-05-03T12:35:41.358Z,348.75
2023-05-03T12:36:43.439Z,348.75
2023-05-03T12:37:42.468Z,354.38
2023-05-03T12:38:42.324Z,354.38
2023-05-03T12:39:40.592Z,354.38
2023-05-03T12:40:40.500Z,354.38
2023-05-03T12:42:43.249Z,354.38
2023-05-03T12:43:40.087Z,354.38
2023-05-03T12:44:42.359Z,354.38
2023-05-03T12:45:41.274Z,348.75
2023-05-03T12:46:41.675Z,354.38
2023-05-03T12:47:41.447Z,354.38